Fort Walton Beach, FL

11:30 PM CDT on March 26, 2015 (GMT -0500)
Cinco Bayou - Pocahontas Dr. | | Change Station
CLOSE
Current Station
Personal Weather Station
Location: Fort Walton Beach, FL
Elevation: 16 ft
Nearby Weather Stations

Elev 16 ft 30.43 °N, 86.62 °W | Updated 4 seconds ago

Overcast
Overcast
66.7 °F
Feels Like 66.7 °F
N
0.0
Wind Variable Wind from SW
Gusts 0.0 mph

Today
High -- | Low -- °F
--% Chance of Precip.
Yesterday
High -- | Low -- °F
Precip. -- in
6:43 AM 7:01 PM
Waxing Crescent, 49% visible
Pressure 29.79 in
Visibility 10.0 miles
Clouds Few 12000 ft
Mostly Cloudy 20000 ft
Dew Point 65 °F
Humidity 94%
Rainfall 0.76 in
Snow Depth Not available.
UV 0 out of 12
Pollen 8.30 out of 12
Air Quality Not available.
Flu Activity Not available.
METAR KHRT 270358Z 19005KT 10SM FEW120 BKN200 20/16 A2978 RMK AO2A SLP086 T01970164 $

More Conditions Fewer Conditions

Pressure 29.79 in
Visibility 10.0 miles
Clouds Few 12000 ft
Mostly Cloudy 20000 ft
Dew Point 65 °F
Humidity 94%
Rainfall 0.76 in
Snow Depth Not available.
UV 0 out of 12
Pollen 8.30 out of 12
Air Quality Not available.
Flu Activity Not available.
METAR KHRT 270358Z 19005KT 10SM FEW120 BKN200 20/16 A2978 RMK AO2A SLP086 T01970164 $

More Conditions Fewer Conditions

10-Day Weather Forecast

Almanac

Astronomy

Mar. 26, 2015 Rise Set
Actual Time
Civil Twilight
Nautical Twilight
Astronomical Twilight
Moon
Length of Visible Light
Length of Day
Tomorrow will be .
, % of the Moon is Illuminated

Today's Extremes

State Highs State Lows

Community

WunderPhotos

Upload Photos

1,808,706 photos uploaded!

WunderBlogs® & News

Nearby

Air Quality

  Air Quality AQ Index Pollutant
Not available.

Snow Depth

Station Depth Elevation

Earthquake Activity

City Distance Mag. Time & Date
Minimum magnitude displayed is 2.5.

Coastal Water Temperatures

Place Temperature

Stations

Nearby Weather Stations

Station Location Temp. Windchill Dew Point Humidity Wind Precip. Elev Updated Type